Terminal Aerodrome Forecast
Issued by NWS

Home | Current Version | Previous Version | Text Only | Print | Product List | Glossary On
Versions: 1 2 3 4 5 6 7 8 9 10 11 12 13 14 15 16 17 18 19 20 21 22
520
FTUS43 KDLH 172335
TAFHYR
TAF
KHYR 172335Z 1800/1824 VRB03KT P6SM SKC
     FM180200 00000KT 4SM BR SCT002 BKN007
      TEMPO 1802/1805 2SM BR OVC006
     FM180500 VRB03KT 3SM BR BKN006
     FM181000 21004KT 5SM BR SCT006 WS020/24035KT
     FM181500 20007KT P6SM SCT080=

USA.gov is the U.S. government's official web portal to all federal, state and local government web resources and services.